Élőkép

Információk

Albatrosz Repülő Egyesület
8000 Székesfehérvár,
Radványi utca 6.

Adószám:
19092908-2-07

Bankszámla szám:
Budapest Bank
10102952-01361819-00000001

Telefon: +36 30 9598-897

Telephey: Börgönd repülőtér

Börgöndi repülõtér

LHBP METAR/TAF

[source: ADDS]
METAR
TAF LHBP 222300Z 2300/2324 30013KT 9999 SCT020 BKN045 BECMG 2300/2303 31007KT BECMG 2306/2309 01009KT TEMPO 2307/2316 -RA -SHRA BKN015 OVC030 BECMG 2317/2320 01015KT CAVOK TAF
TAF LHBP 222300Z 2300/2324 30013KT 9999 SCT020 BKN045 BECMG 2300/2303 31007KT BECMG 2306/2309 01009KT TEMPO 2307/2316 -RA -SHRA BKN015 OVC030 BECMG 2317/2320 01015KT CAVOK =
SR / SS: 05:18 / 15:46 UTC (Börgönd 2014-10-23)
Hungarian Chinese (Simplified) Croatian Czech English Finnish French German Hebrew Italian Japanese Polish Portuguese Romanian Russian Serbian Slovak Slovenian Spanish

Belépés tagoknak